sensor_id;sensor_type;location;lat;lon;timestamp;pressure;altitude;pressure_sealevel;temperature;humidity
6615;BME280;3343;42.896;23.912;2022-12-29T00:02:14;97432.06;;;7.38;95.82
6615;BME280;3343;42.896;23.912;2022-12-29T00:04:42;97438.19;;;7.29;94.46
6615;BME280;3343;42.896;23.912;2022-12-29T00:07:10;97435.75;;;7.18;95.56
6615;BME280;3343;42.896;23.912;2022-12-29T00:09:37;97437.06;;;7.31;94.89
6615;BME280;3343;42.896;23.912;2022-12-29T00:12:05;97434.53;;;7.40;94.75
6615;BME280;3343;42.896;23.912;2022-12-29T00:14:31;97430.72;;;7.34;95.28
6615;BME280;3343;42.896;23.912;2022-12-29T00:17:16;97421.97;;;7.43;94.74
6615;BME280;3343;42.896;23.912;2022-12-29T00:19:42;97435.16;;;7.51;94.43
6615;BME280;3343;42.896;23.912;2022-12-29T00:22:28;97443.56;;;7.55;94.65
6615;BME280;3343;42.896;23.912;2022-12-29T00:25:13;97443.72;;;7.53;94.92
6615;BME280;3343;42.896;23.912;2022-12-29T00:27:57;97439.69;;;6.85;97.48
6615;BME280;3343;42.896;23.912;2022-12-29T00:30:43;97437.09;;;6.75;98.11
6615;BME280;3343;42.896;23.912;2022-12-29T00:33:29;97434.75;;;6.82;98.59
6615;BME280;3343;42.896;23.912;2022-12-29T00:36:17;97441.28;;;6.58;100.00
6615;BME280;3343;42.896;23.912;2022-12-29T00:38:49;97441.38;;;6.76;98.76
6615;BME280;3343;42.896;23.912;2022-12-29T00:41:35;97446.63;;;6.57;99.49
6615;BME280;3343;42.896;23.912;2022-12-29T00:44:19;97451.75;;;6.29;100.00
6615;BME280;3343;42.896;23.912;2022-12-29T00:46:46;97445.16;;;6.25;100.00
6615;BME280;3343;42.896;23.912;2022-12-29T00:49:13;97447.72;;;6.64;98.78
6615;BME280;3343;42.896;23.912;2022-12-29T00:52:00;97447.78;;;6.25;99.87
6615;BME280;3343;42.896;23.912;2022-12-29T00:54:30;97445.41;;;5.93;100.00
6615;BME280;3343;42.896;23.912;2022-12-29T00:56:57;97444.09;;;5.68;100.00
6615;BME280;3343;42.896;23.912;2022-12-29T00:59:24;97433.13;;;5.84;100.00
6615;BME280;3343;42.896;23.912;2022-12-29T01:01:52;97437.38;;;5.75;100.00
6615;BME280;3343;42.896;23.912;2022-12-29T01:04:20;97435.31;;;5.69;100.00
6615;BME280;3343;42.896;23.912;2022-12-29T01:06:47;97421.75;;;5.95;100.00
6615;BME280;3343;42.896;23.912;2022-12-29T01:09:15;97426.59;;;6.19;100.00
6615;BME280;3343;42.896;23.912;2022-12-29T01:12:02;97416.28;;;6.17;99.77
6615;BME280;3343;42.896;23.912;2022-12-29T01:14:29;97418.75;;;6.28;98.66
6615;BME280;3343;42.896;23.912;2022-12-29T01:16:57;97425.06;;;6.35;98.70
6615;BME280;3343;42.896;23.912;2022-12-29T01:19:24;97421.19;;;6.49;97.73
6615;BME280;3343;42.896;23.912;2022-12-29T01:21:51;97416.91;;;6.58;96.72
6615;BME280;3343;42.896;23.912;2022-12-29T01:24:19;97425.88;;;6.46;96.88
6615;BME280;3343;42.896;23.912;2022-12-29T01:26:46;97426.19;;;6.23;96.86
6615;BME280;3343;42.896;23.912;2022-12-29T01:29:15;97423.22;;;5.88;98.97
6615;BME280;3343;42.896;23.912;2022-12-29T01:31:42;97425.00;;;5.87;98.73
6615;BME280;3343;42.896;23.912;2022-12-29T01:34:09;97410.34;;;5.96;97.69
6615;BME280;3343;42.896;23.912;2022-12-29T01:36:36;97417.59;;;5.83;98.96
6615;BME280;3343;42.896;23.912;2022-12-29T01:39:03;97406.22;;;5.34;99.89
6615;BME280;3343;42.896;23.912;2022-12-29T01:41:29;97406.91;;;5.26;100.00
6615;BME280;3343;42.896;23.912;2022-12-29T01:43:58;97398.81;;;5.39;100.00
6615;BME280;3343;42.896;23.912;2022-12-29T01:46:30;97397.34;;;5.46;100.00
6615;BME280;3343;42.896;23.912;2022-12-29T01:49:04;97386.91;;;5.65;100.00
6615;BME280;3343;42.896;23.912;2022-12-29T01:51:38;97389.16;;;5.99;98.45
6615;BME280;3343;42.896;23.912;2022-12-29T01:54:09;97381.44;;;5.88;96.79
6615;BME280;3343;42.896;23.912;2022-12-29T01:56:37;97382.38;;;5.67;96.97
6615;BME280;3343;42.896;23.912;2022-12-29T01:59:06;97384.88;;;5.79;97.40
6615;BME280;3343;42.896;23.912;2022-12-29T02:01:38;97368.91;;;5.82;97.25
6615;BME280;3343;42.896;23.912;2022-12-29T02:04:05;97373.16;;;5.54;97.30
6615;BME280;3343;42.896;23.912;2022-12-29T02:06:35;97369.50;;;5.16;99.32
6615;BME280;3343;42.896;23.912;2022-12-29T02:09:03;97379.06;;;4.66;100.00
6615;BME280;3343;42.896;23.912;2022-12-29T02:11:30;97357.72;;;4.30;100.00
6615;BME280;3343;42.896;23.912;2022-12-29T02:13:58;97360.84;;;4.45;100.00
6615;BME280;3343;42.896;23.912;2022-12-29T02:16:44;97349.50;;;4.56;100.00
6615;BME280;3343;42.896;23.912;2022-12-29T02:19:35;97337.91;;;4.69;100.00
6615;BME280;3343;42.896;23.912;2022-12-29T02:22:18;97351.50;;;4.73;100.00
6615;BME280;3343;42.896;23.912;2022-12-29T02:25:09;97348.69;;;4.95;100.00
6615;BME280;3343;42.896;23.912;2022-12-29T02:27:52;97348.81;;;4.94;99.94
6615;BME280;3343;42.896;23.912;2022-12-29T02:30:41;97351.41;;;4.84;99.50
6615;BME280;3343;42.896;23.912;2022-12-29T02:33:18;97338.84;;;4.38;100.00
6615;BME280;3343;42.896;23.912;2022-12-29T02:35:54;97346.19;;;4.54;100.00
6615;BME280;3343;42.896;23.912;2022-12-29T02:38:34;97340.50;;;4.39;100.00
6615;BME280;3343;42.896;23.912;2022-12-29T02:41:12;97342.19;;;4.29;100.00
6615;BME280;3343;42.896;23.912;2022-12-29T02:43:49;97346.47;;;4.30;100.00
6615;BME280;3343;42.896;23.912;2022-12-29T02:46:22;97337.28;;;4.56;100.00
6615;BME280;3343;42.896;23.912;2022-12-29T02:48:59;97338.34;;;4.74;99.85
6615;BME280;3343;42.896;23.912;2022-12-29T02:51:35;97335.44;;;4.68;100.00
6615;BME280;3343;42.896;23.912;2022-12-29T02:54:04;97340.22;;;4.63;100.00
6615;BME280;3343;42.896;23.912;2022-12-29T02:56:48;97340.28;;;4.52;99.25
6615;BME280;3343;42.896;23.912;2022-12-29T02:59:16;97335.59;;;4.45;99.92
6615;BME280;3343;42.896;23.912;2022-12-29T03:02:05;97335.09;;;4.52;100.00
6615;BME280;3343;42.896;23.912;2022-12-29T03:04:54;97326.97;;;4.24;100.00
6615;BME280;3343;42.896;23.912;2022-12-29T03:07:31;97344.13;;;3.85;100.00
6615;BME280;3343;42.896;23.912;2022-12-29T03:10:04;97339.03;;;3.83;100.00
6615;BME280;3343;42.896;23.912;2022-12-29T03:12:41;97340.16;;;4.32;100.00
6615;BME280;3343;42.896;23.912;2022-12-29T03:15:34;97333.78;;;4.36;100.00
6615;BME280;3343;42.896;23.912;2022-12-29T03:18:32;97344.91;;;4.38;100.00
6615;BME280;3343;42.896;23.912;2022-12-29T03:21:05;97347.81;;;4.24;100.00
6615;BME280;3343;42.896;23.912;2022-12-29T03:23:35;97358.28;;;4.13;100.00
6615;BME280;3343;42.896;23.912;2022-12-29T03:26:06;97348.31;;;4.18;100.00
6615;BME280;3343;42.896;23.912;2022-12-29T03:28:37;97349.94;;;3.77;100.00
6615;BME280;3343;42.896;23.912;2022-12-29T03:31:06;97356.19;;;3.54;100.00
6615;BME280;3343;42.896;23.912;2022-12-29T03:33:37;97356.34;;;3.41;100.00
6615;BME280;3343;42.896;23.912;2022-12-29T03:36:08;97357.81;;;3.66;100.00
6615;BME280;3343;42.896;23.912;2022-12-29T03:38:42;97356.31;;;3.84;100.00
6615;BME280;3343;42.896;23.912;2022-12-29T03:41:13;97355.38;;;4.06;100.00
6615;BME280;3343;42.896;23.912;2022-12-29T03:43:41;97355.13;;;4.09;100.00
6615;BME280;3343;42.896;23.912;2022-12-29T03:46:08;97356.53;;;4.34;100.00
6615;BME280;3343;42.896;23.912;2022-12-29T03:48:36;97353.41;;;4.20;100.00
6615;BME280;3343;42.896;23.912;2022-12-29T03:51:04;97350.22;;;4.16;100.00
6615;BME280;3343;42.896;23.912;2022-12-29T03:53:31;97349.25;;;4.17;100.00
6615;BME280;3343;42.896;23.912;2022-12-29T03:55:58;97358.94;;;4.05;100.00
6615;BME280;3343;42.896;23.912;2022-12-29T03:58:25;97362.09;;;3.88;100.00
6615;BME280;3343;42.896;23.912;2022-12-29T04:00:51;97355.03;;;3.79;100.00
6615;BME280;3343;42.896;23.912;2022-12-29T04:03:18;97353.88;;;3.72;100.00
6615;BME280;3343;42.896;23.912;2022-12-29T04:05:47;97358.47;;;3.79;100.00
6615;BME280;3343;42.896;23.912;2022-12-29T04:08:13;97352.16;;;3.61;100.00
6615;BME280;3343;42.896;23.912;2022-12-29T04:10:40;97342.69;;;3.60;100.00
6615;BME280;3343;42.896;23.912;2022-12-29T04:13:07;97351.16;;;3.94;100.00
6615;BME280;3343;42.896;23.912;2022-12-29T04:15:34;97344.50;;;4.01;100.00
6615;BME280;3343;42.896;23.912;2022-12-29T04:18:01;97356.63;;;3.91;100.00
6615;BME280;3343;42.896;23.912;2022-12-29T04:20:27;97340.69;;;3.84;100.00
6615;BME280;3343;42.896;23.912;2022-12-29T04:23:13;97346.59;;;4.07;100.00
6615;BME280;3343;42.896;23.912;2022-12-29T04:25:40;97346.09;;;3.93;100.00
6615;BME280;3343;42.896;23.912;2022-12-29T04:28:07;97347.69;;;4.05;99.68
6615;BME280;3343;42.896;23.912;2022-12-29T04:30:34;97341.25;;;3.67;100.00
6615;BME280;3343;42.896;23.912;2022-12-29T04:33:00;97345.91;;;3.53;100.00
6615;BME280;3343;42.896;23.912;2022-12-29T04:35:27;97352.84;;;3.63;100.00
6615;BME280;3343;42.896;23.912;2022-12-29T04:37:54;97347.09;;;3.80;100.00
6615;BME280;3343;42.896;23.912;2022-12-29T04:40:22;97338.97;;;3.74;100.00
6615;BME280;3343;42.896;23.912;2022-12-29T04:42:49;97350.03;;;3.87;100.00
6615;BME280;3343;42.896;23.912;2022-12-29T04:45:16;97359.16;;;3.81;100.00
6615;BME280;3343;42.896;23.912;2022-12-29T04:47:43;97360.81;;;3.82;100.00
6615;BME280;3343;42.896;23.912;2022-12-29T04:50:10;97352.19;;;3.39;100.00
6615;BME280;3343;42.896;23.912;2022-12-29T04:52:38;97371.28;;;3.71;100.00
6615;BME280;3343;42.896;23.912;2022-12-29T04:55:06;97371.56;;;4.10;100.00
6615;BME280;3343;42.896;23.912;2022-12-29T04:57:34;97368.19;;;3.98;100.00
6615;BME280;3343;42.896;23.912;2022-12-29T05:00:01;97360.16;;;3.69;100.00
6615;BME280;3343;42.896;23.912;2022-12-29T05:02:28;97376.03;;;3.66;100.00
6615;BME280;3343;42.896;23.912;2022-12-29T05:04:56;97367.66;;;3.63;100.00
6615;BME280;3343;42.896;23.912;2022-12-29T05:07:23;97380.13;;;3.48;100.00
6615;BME280;3343;42.896;23.912;2022-12-29T05:09:50;97377.47;;;3.91;100.00
6615;BME280;3343;42.896;23.912;2022-12-29T05:12:17;97384.28;;;4.03;100.00
6615;BME280;3343;42.896;23.912;2022-12-29T05:14:45;97377.47;;;4.84;98.80
6615;BME280;3343;42.896;23.912;2022-12-29T05:17:12;97384.00;;;4.69;98.48
6615;BME280;3343;42.896;23.912;2022-12-29T05:19:39;97396.16;;;4.89;96.80
6615;BME280;3343;42.896;23.912;2022-12-29T05:22:06;97385.84;;;4.78;96.28
6615;BME280;3343;42.896;23.912;2022-12-29T05:24:32;97387.09;;;4.84;95.98
6615;BME280;3343;42.896;23.912;2022-12-29T05:26:59;97383.16;;;4.38;97.78
6615;BME280;3343;42.896;23.912;2022-12-29T05:29:26;97386.63;;;4.06;99.11
6615;BME280;3343;42.896;23.912;2022-12-29T05:31:54;97392.13;;;4.45;98.64
6615;BME280;3343;42.896;23.912;2022-12-29T05:34:21;97379.50;;;3.88;99.65
6615;BME280;3343;42.896;23.912;2022-12-29T05:36:48;97394.25;;;4.19;100.00
6615;BME280;3343;42.896;23.912;2022-12-29T05:39:15;97394.38;;;4.18;99.67
6615;BME280;3343;42.896;23.912;2022-12-29T05:41:42;97393.34;;;3.88;100.00
6615;BME280;3343;42.896;23.912;2022-12-29T05:44:10;97373.66;;;4.16;100.00
6615;BME280;3343;42.896;23.912;2022-12-29T05:46:37;97396.94;;;3.76;100.00
6615;BME280;3343;42.896;23.912;2022-12-29T05:49:05;97399.88;;;4.35;100.00
6615;BME280;3343;42.896;23.912;2022-12-29T05:51:32;97394.50;;;4.58;99.77
6615;BME280;3343;42.896;23.912;2022-12-29T05:54:00;97397.13;;;4.37;100.00
6615;BME280;3343;42.896;23.912;2022-12-29T05:56:27;97406.75;;;4.36;100.00
6615;BME280;3343;42.896;23.912;2022-12-29T05:58:53;97404.13;;;4.57;100.00
6615;BME280;3343;42.896;23.912;2022-12-29T06:01:20;97396.59;;;4.64;98.02
6615;BME280;3343;42.896;23.912;2022-12-29T06:03:47;97408.28;;;4.69;97.87
6615;BME280;3343;42.896;23.912;2022-12-29T06:06:15;97414.28;;;4.91;97.58
6615;BME280;3343;42.896;23.912;2022-12-29T06:08:42;97407.19;;;4.41;99.25
6615;BME280;3343;42.896;23.912;2022-12-29T06:11:09;97420.66;;;4.46;98.73
6615;BME280;3343;42.896;23.912;2022-12-29T06:13:36;97422.75;;;4.53;98.23
6615;BME280;3343;42.896;23.912;2022-12-29T06:16:03;97423.22;;;4.26;99.21
6615;BME280;3343;42.896;23.912;2022-12-29T06:18:30;97418.53;;;4.20;99.88
6615;BME280;3343;42.896;23.912;2022-12-29T06:20:59;97425.19;;;4.33;99.17
6615;BME280;3343;42.896;23.912;2022-12-29T06:23:28;97427.06;;;4.42;99.38
6615;BME280;3343;42.896;23.912;2022-12-29T06:25:55;97431.16;;;4.35;99.09
6615;BME280;3343;42.896;23.912;2022-12-29T06:28:22;97423.50;;;4.64;98.01
6615;BME280;3343;42.896;23.912;2022-12-29T06:30:49;97426.63;;;4.37;98.79
6615;BME280;3343;42.896;23.912;2022-12-29T06:33:16;97430.13;;;4.47;98.90
6615;BME280;3343;42.896;23.912;2022-12-29T06:35:43;97429.63;;;4.54;98.87
6615;BME280;3343;42.896;23.912;2022-12-29T06:38:11;97428.72;;;4.64;98.67
6615;BME280;3343;42.896;23.912;2022-12-29T06:40:39;97420.28;;;4.51;99.38
6615;BME280;3343;42.896;23.912;2022-12-29T06:43:06;97432.38;;;4.20;100.00
6615;BME280;3343;42.896;23.912;2022-12-29T06:45:34;97432.00;;;4.25;100.00
6615;BME280;3343;42.896;23.912;2022-12-29T06:48:00;97425.19;;;4.33;100.00
6615;BME280;3343;42.896;23.912;2022-12-29T06:50:27;97408.88;;;4.10;100.00
6615;BME280;3343;42.896;23.912;2022-12-29T06:52:54;97422.59;;;4.75;100.00
6615;BME280;3343;42.896;23.912;2022-12-29T06:55:21;97427.00;;;5.05;100.00
6615;BME280;3343;42.896;23.912;2022-12-29T06:57:49;97428.50;;;5.38;100.00
6615;BME280;3343;42.896;23.912;2022-12-29T07:00:16;97431.81;;;5.40;100.00
6615;BME280;3343;42.896;23.912;2022-12-29T07:02:43;97435.41;;;5.58;100.00
6615;BME280;3343;42.896;23.912;2022-12-29T07:05:10;97435.94;;;6.12;100.00
6615;BME280;3343;42.896;23.912;2022-12-29T07:07:40;97439.44;;;7.25;99.68
6615;BME280;3343;42.896;23.912;2022-12-29T07:10:07;97433.31;;;8.24;93.34
6615;BME280;3343;42.896;23.912;2022-12-29T07:12:34;97439.97;;;8.98;86.74
6615;BME280;3343;42.896;23.912;2022-12-29T07:15:03;97435.56;;;9.75;82.98
6615;BME280;3343;42.896;23.912;2022-12-29T07:17:30;97432.81;;;9.93;80.79
6615;BME280;3343;42.896;23.912;2022-12-29T07:19:56;97441.56;;;10.17;79.02
6615;BME280;3343;42.896;23.912;2022-12-29T07:22:23;97434.22;;;10.62;78.22
6615;BME280;3343;42.896;23.912;2022-12-29T07:24:50;97437.28;;;11.06;76.06
6615;BME280;3343;42.896;23.912;2022-12-29T07:27:17;97439.38;;;11.35;73.55
6615;BME280;3343;42.896;23.912;2022-12-29T07:29:44;97444.63;;;11.27;73.92
6615;BME280;3343;42.896;23.912;2022-12-29T07:32:12;97436.31;;;11.54;72.01
6615;BME280;3343;42.896;23.912;2022-12-29T07:34:40;97439.84;;;12.08;68.34
6615;BME280;3343;42.896;23.912;2022-12-29T07:37:08;97441.59;;;12.47;67.76
6615;BME280;3343;42.896;23.912;2022-12-29T07:39:35;97437.41;;;12.53;65.49
6615;BME280;3343;42.896;23.912;2022-12-29T07:42:01;97442.19;;;12.72;64.57
6615;BME280;3343;42.896;23.912;2022-12-29T07:44:28;97428.53;;;13.06;64.80
6615;BME280;3343;42.896;23.912;2022-12-29T07:46:55;97432.72;;;13.74;60.72
6615;BME280;3343;42.896;23.912;2022-12-29T07:49:23;97428.94;;;13.98;61.09
6615;BME280;3343;42.896;23.912;2022-12-29T07:51:50;97429.06;;;14.47;58.10
6615;BME280;3343;42.896;23.912;2022-12-29T07:54:17;97428.16;;;14.83;56.83
6615;BME280;3343;42.896;23.912;2022-12-29T07:56:44;97427.56;;;15.15;56.99
6615;BME280;3343;42.896;23.912;2022-12-29T07:59:11;97423.56;;;15.26;55.60
6615;BME280;3343;42.896;23.912;2022-12-29T08:01:38;97432.41;;;15.40;54.80
6615;BME280;3343;42.896;23.912;2022-12-29T08:04:05;97416.88;;;15.37;52.91
6615;BME280;3343;42.896;23.912;2022-12-29T08:06:34;97421.44;;;15.49;53.31
6615;BME280;3343;42.896;23.912;2022-12-29T08:09:00;97421.19;;;15.44;49.31
6615;BME280;3343;42.896;23.912;2022-12-29T08:11:27;97421.38;;;15.36;49.44
6615;BME280;3343;42.896;23.912;2022-12-29T08:13:54;97423.88;;;15.79;48.63
6615;BME280;3343;42.896;23.912;2022-12-29T08:16:21;97413.63;;;15.69;46.79
6615;BME280;3343;42.896;23.912;2022-12-29T08:18:48;97422.00;;;15.38;46.17
6615;BME280;3343;42.896;23.912;2022-12-29T08:21:15;97427.69;;;15.35;47.64
6615;BME280;3343;42.896;23.912;2022-12-29T08:23:43;97421.00;;;15.80;47.29
6615;BME280;3343;42.896;23.912;2022-12-29T08:26:10;97418.50;;;15.66;47.38
6615;BME280;3343;42.896;23.912;2022-12-29T08:28:37;97429.34;;;15.43;50.71
6615;BME280;3343;42.896;23.912;2022-12-29T08:31:04;97417.97;;;15.49;51.77
6615;BME280;3343;42.896;23.912;2022-12-29T08:33:31;97422.66;;;15.81;51.23
6615;BME280;3343;42.896;23.912;2022-12-29T08:36:01;97427.19;;;16.01;50.58
6615;BME280;3343;42.896;23.912;2022-12-29T08:38:29;97430.09;;;16.19;49.96
6615;BME280;3343;42.896;23.912;2022-12-29T08:40:58;97423.34;;;16.10;50.78
6615;BME280;3343;42.896;23.912;2022-12-29T08:43:27;97412.56;;;16.44;49.98
6615;BME280;3343;42.896;23.912;2022-12-29T08:45:54;97416.13;;;16.78;45.23
6615;BME280;3343;42.896;23.912;2022-12-29T08:48:21;97410.78;;;16.51;44.67
6615;BME280;3343;42.896;23.912;2022-12-29T08:50:49;97410.28;;;16.21;47.67
6615;BME280;3343;42.896;23.912;2022-12-29T08:53:16;97411.75;;;16.44;46.59
6615;BME280;3343;42.896;23.912;2022-12-29T08:55:44;97410.56;;;16.53;46.17
6615;BME280;3343;42.896;23.912;2022-12-29T08:58:12;97415.50;;;16.76;45.85
6615;BME280;3343;42.896;23.912;2022-12-29T09:00:42;97407.34;;;16.71;47.26
6615;BME280;3343;42.896;23.912;2022-12-29T09:03:10;97399.75;;;16.94;45.66
6615;BME280;3343;42.896;23.912;2022-12-29T09:05:37;97406.28;;;17.05;45.18
6615;BME280;3343;42.896;23.912;2022-12-29T09:08:04;97410.28;;;17.54;44.46
6615;BME280;3343;42.896;23.912;2022-12-29T09:10:31;97399.91;;;17.19;44.40
6615;BME280;3343;42.896;23.912;2022-12-29T09:12:58;97400.06;;;17.50;44.98
6615;BME280;3343;42.896;23.912;2022-12-29T09:15:26;97394.06;;;17.68;43.32
6615;BME280;3343;42.896;23.912;2022-12-29T09:17:53;97393.66;;;17.71;43.91
6615;BME280;3343;42.896;23.912;2022-12-29T09:20:20;97379.09;;;17.74;43.13
6615;BME280;3343;42.896;23.912;2022-12-29T09:22:47;97390.69;;;17.93;41.98
6615;BME280;3343;42.896;23.912;2022-12-29T09:25:15;97379.72;;;17.69;42.25
6615;BME280;3343;42.896;23.912;2022-12-29T09:27:42;97374.47;;;17.49;43.35
6615;BME280;3343;42.896;23.912;2022-12-29T09:30:10;97369.81;;;17.90;42.53
6615;BME280;3343;42.896;23.912;2022-12-29T09:32:39;97375.47;;;18.00;41.78
6615;BME280;3343;42.896;23.912;2022-12-29T09:35:06;97366.00;;;17.72;41.71
6615;BME280;3343;42.896;23.912;2022-12-29T09:37:33;97365.81;;;17.67;42.86
6615;BME280;3343;42.896;23.912;2022-12-29T09:40:00;97367.38;;;17.81;44.68
6615;BME280;3343;42.896;23.912;2022-12-29T09:42:32;97359.78;;;18.23;41.52
6615;BME280;3343;42.896;23.912;2022-12-29T09:45:10;97353.94;;;18.39;41.26
6615;BME280;3343;42.896;23.912;2022-12-29T09:47:42;97356.97;;;18.11;41.94
6615;BME280;3343;42.896;23.912;2022-12-29T09:50:17;97349.78;;;18.12;42.06
6615;BME280;3343;42.896;23.912;2022-12-29T09:52:48;97350.25;;;18.02;42.64
6615;BME280;3343;42.896;23.912;2022-12-29T09:55:19;97347.22;;;17.54;42.94
6615;BME280;3343;42.896;23.912;2022-12-29T09:57:52;97353.91;;;17.76;43.72
6615;BME280;3343;42.896;23.912;2022-12-29T10:00:22;97348.31;;;17.85;43.26
6615;BME280;3343;42.896;23.912;2022-12-29T10:02:54;97351.84;;;18.10;43.99
6615;BME280;3343;42.896;23.912;2022-12-29T10:05:34;97340.59;;;18.08;42.02
6615;BME280;3343;42.896;23.912;2022-12-29T10:08:20;97342.50;;;18.01;42.68
6615;BME280;3343;42.896;23.912;2022-12-29T10:10:56;97341.53;;;18.20;42.83
6615;BME280;3343;42.896;23.912;2022-12-29T10:13:29;97339.88;;;18.26;42.78
6615;BME280;3343;42.896;23.912;2022-12-29T10:16:03;97335.97;;;18.28;43.12
6615;BME280;3343;42.896;23.912;2022-12-29T10:21:27;97343.47;;;18.06;44.04
6615;BME280;3343;42.896;23.912;2022-12-29T10:24:02;97337.50;;;18.42;43.79
6615;BME280;3343;42.896;23.912;2022-12-29T10:26:41;97325.16;;;18.48;43.10
6615;BME280;3343;42.896;23.912;2022-12-29T10:29:15;97322.56;;;18.10;44.15
6615;BME280;3343;42.896;23.912;2022-12-29T10:31:44;97329.50;;;17.79;45.27
6615;BME280;3343;42.896;23.912;2022-12-29T10:34:21;97318.09;;;17.72;46.29
6615;BME280;3343;42.896;23.912;2022-12-29T10:36:51;97323.13;;;17.87;45.46
6615;BME280;3343;42.896;23.912;2022-12-29T10:39:25;97315.03;;;17.11;47.12
6615;BME280;3343;42.896;23.912;2022-12-29T10:41:58;97301.63;;;16.60;49.04
6615;BME280;3343;42.896;23.912;2022-12-29T10:44:30;97315.69;;;16.86;48.86
6615;BME280;3343;42.896;23.912;2022-12-29T10:47:03;97310.09;;;17.14;47.74
6615;BME280;3343;42.896;23.912;2022-12-29T10:49:36;97312.28;;;17.31;46.80
6615;BME280;3343;42.896;23.912;2022-12-29T10:52:06;97305.34;;;17.30;46.11
6615;BME280;3343;42.896;23.912;2022-12-29T10:54:39;97300.28;;;17.08;47.55
6615;BME280;3343;42.896;23.912;2022-12-29T10:57:14;97301.19;;;16.89;48.73
6615;BME280;3343;42.896;23.912;2022-12-29T10:59:46;97307.66;;;17.13;48.15
6615;BME280;3343;42.896;23.912;2022-12-29T11:02:34;97301.38;;;17.52;46.50
6615;BME280;3343;42.896;23.912;2022-12-29T11:05:16;97277.63;;;17.50;46.60
6615;BME280;3343;42.896;23.912;2022-12-29T11:07:46;97297.97;;;17.32;47.04
6615;BME280;3343;42.896;23.912;2022-12-29T11:10:19;97297.75;;;17.40;46.53
6615;BME280;3343;42.896;23.912;2022-12-29T11:12:58;97297.13;;;17.31;46.01
6615;BME280;3343;42.896;23.912;2022-12-29T11:15:25;97298.47;;;17.02;47.16
6615;BME280;3343;42.896;23.912;2022-12-29T11:17:53;97292.69;;;17.18;45.53
6615;BME280;3343;42.896;23.912;2022-12-29T11:20:31;97289.06;;;17.00;46.78
6615;BME280;3343;42.896;23.912;2022-12-29T11:22:59;97287.13;;;16.69;48.00
6615;BME280;3343;42.896;23.912;2022-12-29T11:25:26;97280.97;;;16.62;48.34
6615;BME280;3343;42.896;23.912;2022-12-29T11:27:59;97284.22;;;16.37;48.83
6615;BME280;3343;42.896;23.912;2022-12-29T11:30:28;97291.59;;;16.22;49.70
6615;BME280;3343;42.896;23.912;2022-12-29T11:32:56;97294.25;;;16.09;50.34
6615;BME280;3343;42.896;23.912;2022-12-29T11:35:33;97282.59;;;16.03;51.26
6615;BME280;3343;42.896;23.912;2022-12-29T11:38:02;97275.47;;;16.04;53.39
6615;BME280;3343;42.896;23.912;2022-12-29T11:40:29;97274.63;;;16.36;51.93
6615;BME280;3343;42.896;23.912;2022-12-29T11:42:59;97274.63;;;16.63;51.32
6615;BME280;3343;42.896;23.912;2022-12-29T11:45:30;97271.16;;;16.69;49.73
6615;BME280;3343;42.896;23.912;2022-12-29T11:48:00;97268.91;;;16.39;50.57
6615;BME280;3343;42.896;23.912;2022-12-29T11:50:31;97268.72;;;16.21;52.89
6615;BME280;3343;42.896;23.912;2022-12-29T11:53:01;97274.84;;;15.82;54.58
6615;BME280;3343;42.896;23.912;2022-12-29T11:55:30;97273.28;;;15.53;54.25
6615;BME280;3343;42.896;23.912;2022-12-29T11:58:00;97264.47;;;15.33;56.29
6615;BME280;3343;42.896;23.912;2022-12-29T12:00:32;97264.28;;;15.41;56.61
6615;BME280;3343;42.896;23.912;2022-12-29T12:03:02;97269.72;;;15.67;57.96
6615;BME280;3343;42.896;23.912;2022-12-29T12:05:36;97261.91;;;15.59;59.69
6615;BME280;3343;42.896;23.912;2022-12-29T12:08:11;97264.19;;;15.62;60.57
6615;BME280;3343;42.896;23.912;2022-12-29T12:10:44;97255.22;;;15.63;59.79
6615;BME280;3343;42.896;23.912;2022-12-29T12:13:19;97256.44;;;15.60;60.98
6615;BME280;3343;42.896;23.912;2022-12-29T12:15:53;97251.44;;;15.51;61.02
6615;BME280;3343;42.896;23.912;2022-12-29T12:18:32;97251.84;;;15.41;61.48
6615;BME280;3343;42.896;23.912;2022-12-29T12:21:10;97253.44;;;15.29;64.86
6615;BME280;3343;42.896;23.912;2022-12-29T12:23:46;97256.22;;;15.62;63.55
6615;BME280;3343;42.896;23.912;2022-12-29T12:26:18;97246.25;;;15.90;64.56
6615;BME280;3343;42.896;23.912;2022-12-29T12:28:51;97244.81;;;16.34;63.97
6615;BME280;3343;42.896;23.912;2022-12-29T12:31:39;97244.59;;;16.49;60.50
6615;BME280;3343;42.896;23.912;2022-12-29T12:34:14;97239.66;;;16.79;52.77
6615;BME280;3343;42.896;23.912;2022-12-29T12:37:21;97233.97;;;17.58;50.97
6615;BME280;3343;42.896;23.912;2022-12-29T12:40:07;97247.41;;;17.38;51.30
6615;BME280;3343;42.896;23.912;2022-12-29T12:42:50;97240.03;;;17.40;51.89
6615;BME280;3343;42.896;23.912;2022-12-29T12:45:39;97242.69;;;17.40;50.30
6615;BME280;3343;42.896;23.912;2022-12-29T12:48:23;97244.31;;;17.41;50.46
6615;BME280;3343;42.896;23.912;2022-12-29T12:51:00;97239.97;;;17.47;48.92
6615;BME280;3343;42.896;23.912;2022-12-29T12:53:47;97243.47;;;17.47;48.97
6615;BME280;3343;42.896;23.912;2022-12-29T12:56:27;97234.56;;;17.22;50.03
6615;BME280;3343;42.896;23.912;2022-12-29T12:59:03;97244.13;;;17.30;50.25
6615;BME280;3343;42.896;23.912;2022-12-29T13:01:38;97245.16;;;17.35;51.76
6615;BME280;3343;42.896;23.912;2022-12-29T13:04:26;97245.25;;;17.54;49.69
6615;BME280;3343;42.896;23.912;2022-12-29T13:07:10;97247.28;;;17.13;49.72
6615;BME280;3343;42.896;23.912;2022-12-29T13:10:02;97256.22;;;16.81;51.39
6615;BME280;3343;42.896;23.912;2022-12-29T13:12:40;97250.72;;;16.69;50.45
6615;BME280;3343;42.896;23.912;2022-12-29T13:15:35;97248.66;;;16.71;50.09
6615;BME280;3343;42.896;23.912;2022-12-29T13:18:17;97245.19;;;16.58;49.24
6615;BME280;3343;42.896;23.912;2022-12-29T13:20:51;97250.69;;;16.82;49.58
6615;BME280;3343;42.896;23.912;2022-12-29T13:23:24;97250.69;;;16.82;49.35
6615;BME280;3343;42.896;23.912;2022-12-29T13:26:00;97258.03;;;16.87;49.06
6615;BME280;3343;42.896;23.912;2022-12-29T13:28:35;97258.41;;;16.97;48.77
6615;BME280;3343;42.896;23.912;2022-12-29T13:31:11;97254.38;;;16.62;49.80
6615;BME280;3343;42.896;23.912;2022-12-29T13:33:45;97251.75;;;16.48;50.07
6615;BME280;3343;42.896;23.912;2022-12-29T13:36:21;97261.72;;;15.60;52.58
6615;BME280;3343;42.896;23.912;2022-12-29T13:38:53;97259.72;;;15.89;53.13